Time;durP1;ratioP1;P1;durP2;ratioP2;P2;SDS_P1;SDS_P2;PMS_P1;PMS_P2;Temp;Humidity;BMP_temperature;BMP_pressure;BME280_temperature;BME280_humidity;BME280_pressure;Samples;Min_cycle;Max_cycle;Signal;HPM_P1;HPM_P2
2022/02/20 00:00:59;;;;;;;8.35;3.25;;;;;;;-149.78;100.00;50547.72;5046560;28;20465;-67
2022/02/20 00:03:25;;;;;;;6.28;2.55;;;;;;;-149.78;100.00;50522.28;5059376;28;20052;-68
2022/02/20 00:05:52;;;;;;;7.70;3.05;;;;;;;-149.78;100.00;50543.81;5052723;28;20372;-67
2022/02/20 00:08:18;;;;;;;10.10;2.50;;;;;;;-149.78;100.00;50522.28;5058789;28;20071;-68
2022/02/20 00:10:44;;;;;;;6.35;3.05;;;;;;;-149.78;100.00;50557.50;5064951;28;20514;-67
2022/02/20 00:13:10;;;;;;;16.02;3.83;;;;;;;-149.78;100.00;50510.56;5047657;28;20032;-68
2022/02/20 00:15:35;;;;;;;15.07;4.20;;;;;;;-149.78;100.00;50522.28;5058909;28;20064;-68
2022/02/20 00:18:03;;;;;;;17.02;4.47;;;;;;;-149.78;100.00;50514.47;5038640;28;20041;-68
2022/02/20 00:20:32;;;;;;;18.52;4.88;;;;;;;-149.78;100.00;50534.03;5066478;28;20055;-68
2022/02/20 00:23:03;;;;;;;13.88;4.95;;;;;;;-149.78;100.00;50586.84;5029860;28;20036;-68
2022/02/20 00:25:31;;;;;;;11.85;4.40;;;;;;;-149.78;100.00;50510.56;5058374;28;20087;-69
2022/02/20 00:27:58;;;;;;;14.25;5.70;;;;;;;-149.78;100.00;50518.38;5069052;28;20032;-68
2022/02/20 00:30:24;;;;;;;17.50;6.60;;;;;;;-149.78;100.00;50530.13;5053973;28;20032;-68
2022/02/20 00:32:51;;;;;;;12.60;5.05;;;;;;;-149.78;100.00;50522.28;5061434;28;20464;-67
2022/02/20 00:35:17;;;;;;;14.93;5.03;;;;;;;-149.78;100.00;50541.84;5060885;28;20395;-68
2022/02/20 00:37:42;;;;;;;24.70;5.93;;;;;;;-149.78;100.00;50510.56;5068561;28;20127;-68
2022/02/20 00:40:09;;;;;;;14.93;5.47;;;;;;;-149.78;100.00;50557.50;5056954;28;20031;-68
2022/02/20 00:42:35;;;;;;;16.85;5.97;;;;;;;-149.78;100.00;50524.25;5066751;28;20036;-68
2022/02/20 00:45:01;;;;;;;21.70;6.72;;;;;;;-149.78;100.00;50520.34;5063903;28;20489;-68
2022/02/20 00:47:26;;;;;;;17.10;6.20;;;;;;;-149.78;100.00;50514.47;5059100;28;20040;-68
2022/02/20 00:49:52;;;;;;;16.15;6.50;;;;;;;-149.78;100.00;50528.16;5068883;28;20079;-68
2022/02/20 00:52:18;;;;;;;16.20;7.15;;;;;;;-149.78;100.00;50518.38;5056876;28;20028;-69
2022/02/20 00:54:44;;;;;;;21.88;7.47;;;;;;;-149.78;100.00;50518.38;5058861;28;20187;-68
2022/02/20 00:57:11;;;;;;;20.80;8.20;;;;;;;-149.78;100.00;50537.94;5044561;28;20041;-69
2022/02/20 00:59:38;;;;;;;17.33;7.60;;;;;;;-149.78;100.00;50496.88;5040584;28;20037;-68
2022/02/20 01:02:04;;;;;;;13.20;7.00;;;;;;;-149.78;100.00;50498.81;5046219;28;20053;-68
2022/02/20 01:04:30;;;;;;;16.95;7.60;;;;;;;-149.78;100.00;50537.94;5032884;28;20029;-68
2022/02/20 01:06:56;;;;;;;14.75;7.65;;;;;;;-149.78;100.00;50522.28;5045087;28;20107;-68
2022/02/20 01:09:22;;;;;;;27.80;8.85;;;;;;;-149.78;100.00;50502.75;5047372;28;20025;-68
2022/02/20 01:11:48;;;;;;;23.17;8.32;;;;;;;-149.78;100.00;50502.75;5066672;28;20036;-68
2022/02/20 01:14:13;;;;;;;17.55;8.25;;;;;;;-149.78;100.00;50491.00;5056946;28;20384;-68
2022/02/20 01:16:39;;;;;;;19.17;8.32;;;;;;;-149.78;100.00;50522.28;5073242;28;20037;-68
2022/02/20 01:19:05;;;;;;;18.58;8.43;;;;;;;-149.78;100.00;50479.28;5044314;28;20071;-68
2022/02/20 01:21:31;;;;;;;19.13;8.45;;;;;;;-149.78;100.00;50514.47;5067501;28;20074;-69
2022/02/20 01:23:57;;;;;;;17.98;8.63;;;;;;;-149.78;100.00;50512.50;5055327;28;20052;-69
2022/02/20 01:26:22;;;;;;;16.33;8.18;;;;;;;-149.78;100.00;50535.97;5068055;28;20032;-68
2022/02/20 01:28:48;;;;;;;17.30;7.93;;;;;;;-149.78;100.00;50485.13;5053863;28;20028;-68
2022/02/20 01:31:14;;;;;;;17.52;8.05;;;;;;;-149.78;100.00;50530.13;5052956;28;20033;-68
2022/02/20 01:33:40;;;;;;;16.48;7.35;;;;;;;-149.78;100.00;50491.00;5067551;28;20029;-68
2022/02/20 01:36:08;;;;;;;15.73;7.40;;;;;;;-149.78;100.00;50506.66;5054851;28;20063;-68
2022/02/20 01:38:34;;;;;;;17.80;7.35;;;;;;;-149.78;100.00;50522.28;5066339;28;20021;-68
2022/02/20 01:41:00;;;;;;;14.40;6.55;;;;;;;-149.78;100.00;50506.66;5063017;28;20036;-68
2022/02/20 01:43:26;;;;;;;11.80;6.05;;;;;;;-149.78;100.00;50514.47;5057942;28;20048;-68
2022/02/20 01:45:53;;;;;;;14.77;6.25;;;;;;;-149.78;100.00;50532.06;5069389;28;20417;-69
2022/02/20 01:48:19;;;;;;;10.07;5.00;;;;;;;-149.78;100.00;50510.56;5057514;28;20021;-68
2022/02/20 01:50:45;;;;;;;10.25;4.93;;;;;;;-149.78;100.00;50498.81;5064682;28;20059;-68
2022/02/20 01:53:11;;;;;;;8.57;4.40;;;;;;;-149.78;100.00;50500.78;5064736;28;20070;-68
2022/02/20 01:55:37;;;;;;;9.13;4.47;;;;;;;-149.78;100.00;50506.66;5039645;28;20542;-68
2022/02/20 01:58:03;;;;;;;12.60;4.22;;;;;;;-149.78;100.00;50502.75;5052333;28;20122;-69
2022/02/20 02:00:29;;;;;;;12.35;4.22;;;;;;;-149.78;100.00;50514.47;5062457;28;20396;-68
2022/02/20 02:02:55;;;;;;;13.80;3.80;;;;;;;-149.78;100.00;50487.09;5066874;28;20033;-68
2022/02/20 02:05:20;;;;;;;6.93;3.55;;;;;;;-149.78;100.00;50526.22;5069641;28;20535;-68
2022/02/20 02:07:46;;;;;;;9.98;3.63;;;;;;;-149.78;100.00;50549.69;5058914;28;20033;-68
2022/02/20 02:10:12;;;;;;;10.38;2.92;;;;;;;-149.78;100.00;50520.34;5071747;28;20163;-68
2022/02/20 02:12:38;;;;;;;8.48;2.92;;;;;;;-149.78;100.00;50520.34;5062465;28;20161;-69
2022/02/20 02:15:05;;;;;;;10.77;2.85;;;;;;;-149.78;100.00;50526.22;5065621;28;20083;-69
2022/02/20 02:17:32;;;;;;;9.50;2.83;;;;;;;-149.78;100.00;50510.56;5071126;28;20033;-69
2022/02/20 02:19:58;;;;;;;9.40;2.75;;;;;;;-149.78;100.00;50483.19;5059813;28;20079;-68
2022/02/20 02:22:25;;;;;;;12.13;2.67;;;;;;;-149.78;100.00;50512.50;5070738;28;20044;-69
2022/02/20 02:24:51;;;;;;;6.68;2.67;;;;;;;-149.78;100.00;50494.91;5065341;28;20120;-69
2022/02/20 02:27:18;;;;;;;7.18;2.95;;;;;;;-149.78;100.00;50504.69;5045804;28;20037;-69
2022/02/20 02:29:46;;;;;;;9.70;2.60;;;;;;;-149.78;100.00;50483.19;5034778;28;20096;-69
2022/02/20 02:32:12;;;;;;;10.40;2.92;;;;;;;-149.78;100.00;50491.00;5043223;28;20086;-69
2022/02/20 02:34:42;;;;;;;10.00;2.38;;;;;;;-149.78;100.00;50491.00;5068612;28;20430;-69
2022/02/20 02:37:08;;;;;;;10.88;2.80;;;;;;;-149.78;100.00;50489.03;5067360;28;20115;-69
2022/02/20 02:39:35;;;;;;;10.05;2.65;;;;;;;-149.78;100.00;50502.75;5061083;28;20498;-69
2022/02/20 02:42:00;;;;;;;10.77;2.45;;;;;;;-149.78;100.00;50475.34;5071143;28;20071;-69
2022/02/20 02:44:26;;;;;;;9.10;1.95;;;;;;;-149.78;100.00;50491.00;5061450;28;20119;-69
2022/02/20 02:46:52;;;;;;;8.52;2.60;;;;;;;-149.78;100.00;50483.19;5066520;28;20116;-68
2022/02/20 02:49:17;;;;;;;18.02;2.80;;;;;;;-149.78;100.00;50467.53;5067221;28;20111;-69
2022/02/20 02:51:43;;;;;;;8.95;2.03;;;;;;;-149.78;100.00;50487.09;5059964;28;20029;-69
2022/02/20 02:54:12;;;;;;;17.70;2.50;;;;;;;-149.78;100.00;50463.63;5062609;28;20021;-70
2022/02/20 02:56:38;;;;;;;13.88;3.13;;;;;;;-149.78;100.00;50491.00;5062605;28;20193;-69
2022/02/20 02:59:04;;;;;;;14.15;2.20;;;;;;;-149.78;100.00;50451.88;5064639;28;20039;-68
2022/02/20 03:01:30;;;;;;;17.30;2.78;;;;;;;-149.78;100.00;50483.19;5069828;28;20116;-68
2022/02/20 03:03:56;;;;;;;16.33;2.67;;;;;;;-149.78;100.00;50487.09;5057309;28;20128;-69
2022/02/20 03:06:24;;;;;;;15.10;2.72;;;;;;;-149.78;100.00;50453.84;5075521;28;20502;-69
2022/02/20 03:08:50;;;;;;;17.33;2.45;;;;;;;-149.78;100.00;50467.53;5063790;28;20370;-69
2022/02/20 03:11:15;;;;;;;17.70;2.88;;;;;;;-149.78;100.00;50467.53;5049165;28;20464;-69
2022/02/20 03:13:42;;;;;;;18.35;3.80;;;;;;;-149.78;100.00;50422.56;5058152;28;20040;-70
2022/02/20 03:16:07;;;;;;;15.88;2.40;;;;;;;-149.78;100.00;50471.44;5070682;28;20087;-69
2022/02/20 03:18:33;;;;;;;17.27;2.80;;;;;;;-149.78;100.00;50463.63;5061897;28;20033;-69
2022/02/20 03:21:01;;;;;;;13.18;2.25;;;;;;;-149.78;100.00;50436.25;5064855;28;20049;-69
2022/02/20 03:23:27;;;;;;;15.77;2.55;;;;;;;-149.78;100.00;50463.63;5068038;28;20041;-69
2022/02/20 03:25:53;;;;;;;17.33;2.70;;;;;;;-149.78;100.00;50467.53;5057389;28;20079;-69
2022/02/20 03:28:19;;;;;;;16.73;3.58;;;;;;;-149.78;100.00;50471.44;5058622;28;20036;-69
2022/02/20 03:30:45;;;;;;;10.60;3.30;;;;;;;-149.78;100.00;50455.81;5073534;28;20060;-69
2022/02/20 03:33:11;;;;;;;13.40;2.90;;;;;;;-149.78;100.00;50463.63;5062073;28;20061;-69
2022/02/20 03:35:37;;;;;;;19.15;3.10;;;;;;;-149.78;100.00;50471.44;5070267;28;20367;-69
2022/02/20 03:38:04;;;;;;;21.25;3.10;;;;;;;-149.78;100.00;50434.28;5057056;28;20540;-69
2022/02/20 03:40:30;;;;;;;27.40;3.70;;;;;;;-149.78;100.00;50455.81;5068829;28;20052;-69
2022/02/20 03:42:55;;;;;;;33.15;3.60;;;;;;;-149.78;100.00;50483.19;5063202;28;20475;-69
2022/02/20 03:45:22;;;;;;;23.48;3.42;;;;;;;-149.78;100.00;50479.28;5043856;28;20036;-69
2022/02/20 03:47:49;;;;;;;23.67;3.47;;;;;;;-149.78;100.00;50434.28;5071094;28;20134;-69
2022/02/20 03:50:15;;;;;;;27.05;4.43;;;;;;;-149.78;100.00;50463.63;5058526;28;20125;-69
2022/02/20 03:52:41;;;;;;;19.15;3.03;;;;;;;-149.78;100.00;50479.28;5067028;28;20471;-69
2022/02/20 03:55:09;;;;;;;23.58;3.45;;;;;;;-149.78;100.00;50467.53;5053817;28;20029;-69
2022/02/20 03:57:36;;;;;;;37.65;4.15;;;;;;;-149.78;100.00;50440.16;5047197;28;20035;-69
2022/02/20 04:00:11;;;;;;;26.25;3.55;;;;;;;-149.78;100.00;50447.97;5061254;28;20033;-69
2022/02/20 04:02:38;;;;;;;31.52;3.75;;;;;;;-149.78;100.00;50455.81;5030503;28;20380;-69
2022/02/20 04:05:08;;;;;;;24.92;4.22;;;;;;;-149.78;100.00;50420.59;5060711;28;20496;-69
2022/02/20 04:07:35;;;;;;;24.90;3.28;;;;;;;-149.78;100.00;50447.97;5037036;28;20121;-69
2022/02/20 04:10:02;;;;;;;26.90;4.65;;;;;;;-149.78;100.00;50444.06;5070513;28;20064;-69
2022/02/20 04:12:29;;;;;;;22.42;2.92;;;;;;;-149.78;100.00;50451.88;5058932;28;20051;-69
2022/02/20 04:14:55;;;;;;;30.58;3.80;;;;;;;-149.78;100.00;50477.31;5063419;28;20037;-69
2022/02/20 04:17:21;;;;;;;21.63;3.28;;;;;;;-149.78;100.00;50475.34;5054177;28;20036;-69
2022/02/20 04:19:48;;;;;;;20.40;3.50;;;;;;;-149.78;100.00;50447.97;5035658;28;20030;-69
2022/02/20 04:22:14;;;;;;;35.78;4.05;;;;;;;-149.78;100.00;50475.34;5055957;28;20393;-69
2022/02/20 04:24:41;;;;;;;25.88;4.43;;;;;;;-149.78;100.00;50465.56;5062222;28;20032;-69
2022/02/20 04:27:07;;;;;;;29.58;4.57;;;;;;;-149.78;100.00;50479.28;5063888;28;20115;-69
2022/02/20 04:29:33;;;;;;;26.52;3.50;;;;;;;-149.78;100.00;50471.44;5057933;28;20033;-69
2022/02/20 04:31:58;;;;;;;19.00;3.53;;;;;;;-149.78;100.00;50475.34;5062948;28;20086;-69
2022/02/20 04:34:24;;;;;;;30.70;4.38;;;;;;;-149.78;100.00;50463.63;5053876;28;20037;-69
2022/02/20 04:36:50;;;;;;;38.45;4.72;;;;;;;-149.78;100.00;50471.44;5061339;28;20033;-69
2022/02/20 04:39:16;;;;;;;33.22;3.60;;;;;;;-149.78;100.00;50438.19;5061440;28;20503;-69
2022/02/20 04:41:41;;;;;;;24.52;3.65;;;;;;;-149.78;100.00;50451.88;5069659;28;20033;-69
2022/02/20 04:44:07;;;;;;;30.48;4.25;;;;;;;-149.78;100.00;50463.63;5056959;28;20460;-69
2022/02/20 04:46:35;;;;;;;24.95;4.07;;;;;;;-149.78;100.00;50440.16;5067110;28;20028;-69
2022/02/20 04:49:06;;;;;;;20.65;4.22;;;;;;;-149.78;100.00;50471.44;5062594;28;20040;-69
2022/02/20 04:51:33;;;;;;;32.55;5.32;;;;;;;-149.78;100.00;50498.81;5052568;28;20049;-69
2022/02/20 04:54:00;;;;;;;31.80;4.93;;;;;;;-149.78;100.00;50463.63;5068583;28;20032;-68
2022/02/20 04:56:26;;;;;;;27.45;4.63;;;;;;;-149.78;100.00;50459.72;5057793;28;20032;-69
2022/02/20 04:58:52;;;;;;;18.95;3.85;;;;;;;-149.78;100.00;50471.44;5063897;28;20112;-69
2022/02/20 05:01:18;;;;;;;29.15;4.38;;;;;;;-149.78;100.00;50475.34;5066044;28;20111;-69
2022/02/20 05:03:44;;;;;;;33.95;6.70;;;;;;;-149.78;100.00;50459.72;5055586;28;20608;-69
2022/02/20 05:06:10;;;;;;;30.42;4.28;;;;;;;-149.78;100.00;50459.72;5061338;28;20066;-69
2022/02/20 05:08:36;;;;;;;27.73;4.32;;;;;;;-149.78;100.00;50465.56;5058561;28;20094;-69
2022/02/20 05:11:01;;;;;;;29.90;4.35;;;;;;;-149.78;100.00;50451.88;5061116;28;20037;-69
2022/02/20 05:13:27;;;;;;;35.20;6.32;;;;;;;-149.78;100.00;50502.75;5065894;28;20064;-69
2022/02/20 05:15:53;;;;;;;46.13;6.43;;;;;;;-149.78;100.00;50440.16;5054896;28;20036;-69
2022/02/20 05:18:19;;;;;;;37.22;5.43;;;;;;;-149.78;100.00;50467.53;5068269;28;20029;-69
2022/02/20 05:20:46;;;;;;;44.35;6.28;;;;;;;-149.78;100.00;50457.75;5059554;28;20048;-69
2022/02/20 05:23:12;;;;;;;45.78;6.88;;;;;;;-149.78;100.00;50459.72;5060926;28;20048;-69
2022/02/20 05:25:37;;;;;;;48.88;5.45;;;;;;;-149.78;100.00;50475.34;5068085;28;20050;-69
2022/02/20 05:28:03;;;;;;;42.63;6.47;;;;;;;-149.78;100.00;50451.88;5054789;28;20025;-69
2022/02/20 05:30:29;;;;;;;34.80;5.38;;;;;;;-149.78;100.00;50487.09;5066779;28;20060;-69
2022/02/20 05:32:55;;;;;;;39.63;5.88;;;;;;;-149.78;100.00;50481.22;5062238;28;20107;-69
2022/02/20 05:35:20;;;;;;;46.05;6.05;;;;;;;-149.78;100.00;50457.75;5059909;28;20046;-69
2022/02/20 05:37:48;;;;;;;32.35;5.13;;;;;;;-149.78;100.00;50444.06;5069357;28;20059;-69
2022/02/20 05:40:19;;;;;;;36.15;5.90;;;;;;;-149.78;100.00;50428.41;5056925;28;20032;-69
2022/02/20 05:42:45;;;;;;;36.70;5.07;;;;;;;-149.78;100.00;50424.50;5064556;28;20029;-69
2022/02/20 05:45:11;;;;;;;36.22;5.78;;;;;;;-149.78;100.00;50459.72;5063436;28;20047;-69
2022/02/20 05:47:37;;;;;;;35.70;6.30;;;;;;;-149.78;100.00;50463.63;5057465;28;20078;-69
2022/02/20 05:50:06;;;;;;;31.52;5.10;;;;;;;-149.78;100.00;50412.78;5068169;28;20089;-69
2022/02/20 05:52:31;;;;;;;32.72;5.00;;;;;;;-149.78;100.00;50481.22;5058083;28;20480;-69
2022/02/20 05:54:57;;;;;;;32.88;5.20;;;;;;;-149.78;100.00;50491.00;5062940;28;20098;-69
2022/02/20 05:57:23;;;;;;;37.95;5.57;;;;;;;-149.78;100.00;50465.56;5065212;28;20044;-69
2022/02/20 05:59:49;;;;;;;32.05;5.57;;;;;;;-149.78;100.00;50479.28;5055900;28;20021;-69
2022/02/20 06:02:15;;;;;;;53.35;7.05;;;;;;;-149.78;100.00;50475.34;5068602;28;20121;-69
2022/02/20 06:04:41;;;;;;;29.58;4.70;;;;;;;-149.78;100.00;50471.44;5060213;28;20531;-69
2022/02/20 06:07:09;;;;;;;29.80;5.32;;;;;;;-149.78;100.00;50485.13;5054472;28;20114;-69
2022/02/20 06:09:35;;;;;;;37.88;6.82;;;;;;;-149.78;100.00;50447.97;5067791;28;20238;-69
2022/02/20 06:12:01;;;;;;;28.98;5.20;;;;;;;-149.78;100.00;50420.59;5055811;28;20388;-69
2022/02/20 06:14:27;;;;;;;21.77;4.63;;;;;;;-149.78;100.00;50463.63;5065765;28;20029;-68
2022/02/20 06:16:52;;;;;;;20.25;3.75;;;;;;;-149.78;100.00;50494.91;5060575;28;20483;-69
2022/02/20 06:19:19;;;;;;;17.83;3.67;;;;;;;-149.78;100.00;50432.31;5058616;28;20483;-69
2022/02/20 06:21:44;;;;;;;16.42;2.40;;;;;;;-149.78;100.00;50463.63;5068778;28;20053;-69
2022/02/20 06:24:10;;;;;;;12.02;2.20;;;;;;;-149.78;100.00;50440.16;5044593;28;20406;-69
2022/02/20 06:26:37;;;;;;;17.90;2.70;;;;;;;-149.78;100.00;50451.88;5064330;28;20029;-69
2022/02/20 06:29:03;;;;;;;13.13;2.25;;;;;;;-149.78;100.00;50451.88;5063117;28;20056;-69
2022/02/20 06:31:29;;;;;;;12.10;1.90;;;;;;;-149.78;100.00;50471.44;5058288;28;20040;-69
2022/02/20 06:33:54;;;;;;;11.80;2.22;;;;;;;-149.78;100.00;50447.97;5050806;28;20040;-69
2022/02/20 06:36:20;;;;;;;10.02;2.13;;;;;;;-149.78;100.00;50473.41;5057242;28;20036;-69
2022/02/20 06:38:47;;;;;;;8.43;2.15;;;;;;;-149.78;100.00;50473.41;5062672;28;20029;-69
2022/02/20 06:41:13;;;;;;;6.88;1.58;;;;;;;-149.78;100.00;50467.53;5064430;28;20044;-69
2022/02/20 06:43:39;;;;;;;14.90;1.95;;;;;;;-149.78;100.00;50449.94;5056594;28;20484;-69
2022/02/20 06:46:05;;;;;;;9.32;1.67;;;;;;;-149.78;100.00;50440.16;5070928;28;20060;-69
2022/02/20 06:48:31;;;;;;;7.25;1.55;;;;;;;-149.78;100.00;50483.19;5060975;28;20032;-68
2022/02/20 06:50:57;;;;;;;9.82;1.30;;;;;;;-149.78;100.00;50477.31;5064690;28;20472;-69
2022/02/20 06:53:24;;;;;;;8.52;1.60;;;;;;;-149.78;100.00;50465.56;5068251;28;20031;-69
2022/02/20 06:55:49;;;;;;;4.45;1.38;;;;;;;-149.78;100.00;50465.56;5052776;28;20041;-69
2022/02/20 06:58:15;;;;;;;10.57;1.75;;;;;;;-149.78;100.00;50438.19;5054369;28;20032;-69
2022/02/20 07:00:41;;;;;;;7.55;2.05;;;;;;;-149.78;100.00;50416.69;5025243;28;20373;-69
2022/02/20 07:03:06;;;;;;;5.95;1.13;;;;;;;-149.78;100.00;50459.72;5048533;28;20044;-68
2022/02/20 07:05:32;;;;;;;8.15;1.42;;;;;;;-149.78;100.00;50473.41;5035679;28;20033;-69
2022/02/20 07:07:59;;;;;;;8.27;1.33;;;;;;;-149.78;100.00;50463.63;5049333;28;20033;-69
2022/02/20 07:10:26;;;;;;;3.95;1.00;;;;;;;-149.78;100.00;50432.31;5047592;28;20411;-69
2022/02/20 07:12:52;;;;;;;4.85;1.08;;;;;;;-149.78;100.00;50537.94;5052976;28;20112;-68
2022/02/20 07:15:18;;;;;;;10.43;1.63;;;;;;;-149.78;100.00;50467.53;5044872;28;20032;-69
2022/02/20 07:17:44;;;;;;;8.32;1.38;;;;;;;-149.78;100.00;50461.66;5041570;28;20034;-71
2022/02/20 07:20:10;;;;;;;3.67;1.30;;;;;;;-149.78;100.00;50459.72;5049461;28;20464;-71
2022/02/20 07:22:37;;;;;;;7.13;1.02;;;;;;;-149.78;100.00;50410.81;5054676;28;20033;-71
2022/02/20 07:25:05;;;;;;;7.25;1.23;;;;;;;-149.78;100.00;50467.53;5046117;28;20116;-72
2022/02/20 07:27:39;;;;;;;5.72;1.13;;;;;;;-149.78;100.00;50459.72;5044962;28;20454;-69
2022/02/20 07:30:07;;;;;;;6.28;1.50;;;;;;;-149.78;100.00;50492.97;5051783;28;20028;-69
2022/02/20 07:32:33;;;;;;;9.05;1.45;;;;;;;-149.78;100.00;50428.41;5041591;28;20025;-69
2022/02/20 07:34:58;;;;;;;5.32;1.48;;;;;;;-149.78;100.00;50463.63;5041679;28;20127;-69
2022/02/20 07:37:28;;;;;;;9.63;2.40;;;;;;;-149.78;100.00;50479.28;5041382;28;20161;-69
2022/02/20 07:39:54;;;;;;;6.85;1.63;;;;;;;-149.78;100.00;50422.56;5040280;28;20091;-69
2022/02/20 07:42:20;;;;;;;5.55;1.83;;;;;;;-149.78;100.00;50440.16;5042442;28;20391;-69
2022/02/20 07:44:45;;;;;;;8.88;1.70;;;;;;;-149.78;100.00;50467.53;5048957;28;20032;-70
2022/02/20 07:47:11;;;;;;;3.63;1.50;;;;;;;-149.78;100.00;50436.25;5049706;28;20037;-69
2022/02/20 07:49:37;;;;;;;5.95;1.23;;;;;;;-149.78;100.00;50463.63;5049786;28;20040;-69
2022/02/20 07:52:04;;;;;;;9.10;1.63;;;;;;;-149.78;100.00;50440.16;5022014;28;20086;-69
2022/02/20 07:54:29;;;;;;;8.73;1.58;;;;;;;-149.78;100.00;50416.69;5046185;28;20446;-69
2022/02/20 07:56:55;;;;;;;10.00;1.42;;;;;;;-149.78;100.00;50463.63;5042683;28;20492;-69
2022/02/20 07:59:21;;;;;;;5.25;1.27;;;;;;;-149.78;100.00;50438.19;5041585;28;20030;-69
2022/02/20 08:01:48;;;;;;;4.93;1.20;;;;;;;-149.78;100.00;50447.97;5046791;28;20116;-69
2022/02/20 08:04:14;;;;;;;6.13;1.35;;;;;;;-149.78;100.00;50447.97;5055905;28;20025;-69
2022/02/20 08:06:40;;;;;;;13.05;1.83;;;;;;;-149.78;100.00;50420.59;5054307;28;20546;-69
2022/02/20 08:09:06;;;;;;;10.70;1.88;;;;;;;-149.78;100.00;50455.81;5033296;28;20037;-69
2022/02/20 08:11:33;;;;;;;7.80;1.80;;;;;;;-149.78;100.00;50451.88;5035889;28;20138;-69
2022/02/20 08:13:59;;;;;;;5.55;1.80;;;;;;;-149.78;100.00;50436.25;5069275;28;20063;-70
2022/02/20 08:16:26;;;;;;;7.63;2.05;;;;;;;-149.78;100.00;50440.16;5053687;28;20498;-70
2022/02/20 08:18:52;;;;;;;12.48;2.20;;;;;;;-149.78;100.00;50393.22;5057521;28;20079;-70
2022/02/20 08:21:18;;;;;;;5.93;2.05;;;;;;;-149.78;100.00;50459.72;5045387;28;20424;-69
2022/02/20 08:23:45;;;;;;;15.20;2.17;;;;;;;-149.78;100.00;50461.66;5041866;28;20040;-69
2022/02/20 08:26:11;;;;;;;9.45;2.15;;;;;;;-149.78;100.00;50447.97;5035913;28;20037;-70
2022/02/20 08:28:37;;;;;;;10.85;2.33;;;;;;;-149.78;100.00;50463.63;5045926;28;20045;-70
2022/02/20 08:31:04;;;;;;;9.63;2.80;;;;;;;-149.78;100.00;50440.16;5038140;28;20484;-70
2022/02/20 08:33:29;;;;;;;13.82;2.80;;;;;;;-149.78;100.00;50447.97;5031592;28;20052;-70
2022/02/20 08:35:55;;;;;;;10.02;2.65;;;;;;;-149.78;100.00;50440.16;5037053;28;20504;-70
2022/02/20 08:38:21;;;;;;;8.15;2.20;;;;;;;-149.78;100.00;50459.72;5037250;28;20026;-69
2022/02/20 08:40:49;;;;;;;10.80;3.13;;;;;;;-149.78;100.00;50491.00;5042222;28;20043;-70
2022/02/20 08:43:14;;;;;;;16.20;3.13;;;;;;;-149.78;100.00;50459.72;5043919;28;20074;-70
2022/02/20 08:45:40;;;;;;;9.95;2.25;;;;;;;-149.78;100.00;50447.97;5043345;28;20426;-70
2022/02/20 08:48:05;;;;;;;9.55;2.67;;;;;;;-149.78;100.00;50475.34;5040652;28;20037;-70
2022/02/20 08:50:31;;;;;;;10.48;1.90;;;;;;;-149.78;100.00;50467.53;5035638;28;20041;-70
2022/02/20 08:52:57;;;;;;;9.20;3.20;;;;;;;-149.78;100.00;50440.16;5051660;28;20033;-69
2022/02/20 08:55:23;;;;;;;6.43;2.13;;;;;;;-149.78;100.00;50432.31;5044825;28;20044;-70
2022/02/20 08:57:49;;;;;;;12.40;2.25;;;;;;;-149.78;100.00;50436.25;5048886;28;20029;-70
2022/02/20 09:00:15;;;;;;;10.45;2.15;;;;;;;-149.78;100.00;50432.31;5037891;28;20136;-69
2022/02/20 09:02:42;;;;;;;4.95;2.10;;;;;;;-149.78;100.00;50475.34;5034059;28;20041;-69
2022/02/20 09:05:08;;;;;;;7.82;2.05;;;;;;;-149.78;100.00;50449.94;5039301;28;20043;-70
2022/02/20 09:07:33;;;;;;;4.45;1.83;;;;;;;-149.78;100.00;50426.47;5039366;28;20120;-70
2022/02/20 09:09:59;;;;;;;10.52;1.70;;;;;;;-149.78;100.00;50494.91;5016733;28;20025;-70
2022/02/20 09:12:25;;;;;;;7.55;1.80;;;;;;;-149.78;100.00;50440.16;5015892;28;20364;-70
2022/02/20 09:14:50;;;;;;;8.20;1.90;;;;;;;-149.78;100.00;50422.56;5048893;28;20099;-70
2022/02/20 09:17:16;;;;;;;6.05;1.73;;;;;;;-149.78;100.00;50447.97;5041416;28;20041;-70
2022/02/20 09:19:41;;;;;;;11.63;2.22;;;;;;;-149.78;100.00;50451.88;5025815;28;20038;-70
2022/02/20 09:22:07;;;;;;;5.10;1.65;;;;;;;-149.78;100.00;50432.31;5046049;28;20423;-70
2022/02/20 09:24:33;;;;;;;5.70;1.38;;;;;;;-149.78;100.00;50428.41;5041248;28;20117;-70
2022/02/20 09:26:59;;;;;;;6.40;1.58;;;;;;;-149.78;100.00;50453.84;5045100;28;20025;-70
2022/02/20 09:29:24;;;;;;;5.18;1.45;;;;;;;-149.78;100.00;50444.06;5019336;28;20477;-69
2022/02/20 09:31:50;;;;;;;8.18;2.03;;;;;;;-149.78;100.00;50428.41;5041739;28;20501;-70
2022/02/20 09:34:16;;;;;;;7.38;1.88;;;;;;;-149.78;100.00;50428.41;5042393;28;20044;-70
2022/02/20 09:36:42;;;;;;;8.65;2.38;;;;;;;-149.78;100.00;50455.81;5040500;28;20042;-70
2022/02/20 09:39:08;;;;;;;6.00;2.20;;;;;;;-149.78;100.00;50463.63;5040957;28;20492;-70
2022/02/20 09:41:36;;;;;;;8.52;2.42;;;;;;;-149.78;100.00;50432.31;5040299;28;20036;-70
2022/02/20 09:44:04;;;;;;;6.65;2.25;;;;;;;-149.78;100.00;50401.03;5045078;28;20032;-70
2022/02/20 09:46:30;;;;;;;10.07;2.30;;;;;;;-149.78;100.00;50455.81;5044042;28;20032;-71
2022/02/20 09:48:58;;;;;;;7.57;2.47;;;;;;;-149.78;100.00;50432.31;5034328;28;20037;-69
2022/02/20 09:51:24;;;;;;;9.45;2.40;;;;;;;-149.78;100.00;50471.44;5054273;28;20057;-69
2022/02/20 09:53:51;;;;;;;7.88;2.20;;;;;;;-149.78;100.00;50438.19;5046750;28;20112;-70
2022/02/20 09:56:17;;;;;;;14.45;2.40;;;;;;;-149.78;100.00;50455.81;5049206;28;20116;-70
2022/02/20 09:58:42;;;;;;;8.35;2.67;;;;;;;-149.78;100.00;50430.38;5050534;28;20113;-70
2022/02/20 10:01:14;;;;;;;14.93;2.25;;;;;;;-149.78;100.00;50459.72;5045498;28;20030;-70
2022/02/20 10:03:45;;;;;;;14.23;2.88;;;;;;;-149.78;100.00;50438.19;5048244;28;20488;-70
2022/02/20 10:06:16;;;;;;;9.38;2.08;;;;;;;-149.78;100.00;50473.41;5037325;28;20033;-70
2022/02/20 10:08:45;;;;;;;10.48;1.83;;;;;;;-149.78;100.00;50436.25;5043037;28;20178;-70
2022/02/20 10:11:13;;;;;;;11.48;2.35;;;;;;;-149.78;100.00;50455.81;5039929;28;20033;-70
2022/02/20 10:13:39;;;;;;;7.00;1.95;;;;;;;-149.78;100.00;50469.50;5043264;28;20468;-70
2022/02/20 10:16:22;;;;;;;10.50;2.33;;;;;;;-149.78;100.00;50420.59;5005447;28;20044;-70
2022/02/20 10:18:50;;;;;;;12.82;2.40;;;;;;;-149.78;100.00;50467.53;5040906;28;20028;-70
2022/02/20 10:21:24;;;;;;;13.68;2.60;;;;;;;-149.78;100.00;50447.97;5049321;28;20098;-70
2022/02/20 10:23:53;;;;;;;11.70;2.50;;;;;;;-149.78;100.00;50440.16;5026978;28;20056;-70
2022/02/20 10:26:24;;;;;;;11.30;2.33;;;;;;;-149.78;100.00;50471.44;5045320;28;20032;-70
2022/02/20 10:28:59;;;;;;;8.32;2.10;;;;;;;-149.78;100.00;50416.69;5046683;28;20107;-70
2022/02/20 10:31:50;;;;;;;14.23;2.55;;;;;;;-149.78;100.00;50401.03;5044637;28;20021;-70
2022/02/20 10:34:19;;;;;;;11.77;2.15;;;;;;;-149.78;100.00;50404.94;5046005;28;20037;-70
2022/02/20 10:37:03;;;;;;;8.30;2.15;;;;;;;-149.78;100.00;50422.56;5039806;28;20080;-70
2022/02/20 10:39:34;;;;;;;10.18;1.88;;;;;;;-149.78;100.00;50428.41;5048811;28;20032;-70
2022/02/20 10:42:10;;;;;;;6.70;1.73;;;;;;;-149.78;100.00;50467.53;5047736;28;20032;-70
2022/02/20 10:45:00;;;;;;;12.48;2.20;;;;;;;-149.78;100.00;50432.31;5048872;28;20041;-70
2022/02/20 10:47:30;;;;;;;11.18;2.50;;;;;;;-149.78;100.00;50420.59;5042943;28;20091;-70
2022/02/20 10:50:15;;;;;;;11.00;1.92;;;;;;;-149.78;100.00;50461.66;5046032;28;20044;-70
2022/02/20 10:52:41;;;;;;;10.68;2.25;;;;;;;-149.78;100.00;50430.38;5041944;28;20453;-70
2022/02/20 10:55:09;;;;;;;7.90;2.47;;;;;;;-149.78;100.00;50455.81;5043357;28;20116;-70
2022/02/20 10:57:44;;;;;;;7.75;1.95;;;;;;;-149.78;100.00;50469.50;5045238;28;20047;-70
2022/02/20 11:00:13;;;;;;;8.75;2.33;;;;;;;-149.78;100.00;50471.44;5046078;28;20028;-70
2022/02/20 11:02:40;;;;;;;10.82;2.85;;;;;;;-149.78;100.00;50432.31;5043497;28;20022;-70